Time;durP1;ratioP1;P1;durP2;ratioP2;P2;SDS_P1;SDS_P2;PMS_P1;PMS_P2;Temp;Humidity;BMP_temperature;BMP_pressure;BME280_temperature;BME280_humidity;BME280_pressure;Samples;Min_cycle;Max_cycle;Signal;HPM_P1;HPM_P2
2023/05/27 00:02:11;;;;;;;11.13;4.43;;;12.60;6.30;;;;;;5095955;28;20463;-69
2023/05/27 00:04:38;;;;;;;11.97;4.53;;;12.60;12.40;;;;;;5096619;28;20530;-69
2023/05/27 00:07:05;;;;;;;8.47;4.43;;;12.60;17.20;;;;;;5096349;28;20553;-69
2023/05/27 00:09:32;;;;;;;12.37;4.60;;;12.50;21.90;;;;;;5096263;28;20783;-69
2023/05/27 00:11:58;;;;;;;12.13;4.37;;;12.50;30.80;;;;;;5096000;28;20456;-68
2023/05/27 00:14:26;;;;;;;8.23;4.20;;;12.50;35.90;;;;;;5096321;28;20735;-69
2023/05/27 00:16:54;;;;;;;12.80;4.37;;;12.50;41.10;;;;;;5095830;28;20977;-68
2023/05/27 00:19:21;;;;;;;8.77;4.10;;;12.50;45.60;;;;;;5095844;28;20469;-69
2023/05/27 00:21:48;;;;;;;10.17;4.67;;;12.40;52.00;;;;;;5096011;28;20461;-68
2023/05/27 00:24:15;;;;;;;10.03;4.33;;;12.40;62.40;;;;;;5095820;28;20532;-68
2023/05/27 00:26:42;;;;;;;9.90;4.47;;;12.40;89.80;;;;;;5095882;28;20458;-68
2023/05/27 00:29:09;;;;;;;9.50;4.10;;;12.30;98.90;;;;;;5095918;28;20454;-69
2023/05/27 00:31:36;;;;;;;11.20;4.20;;;12.30;99.90;;;;;;5095424;28;20463;-69
2023/05/27 00:34:04;;;;;;;7.80;4.00;;;12.30;99.90;;;;;;5095858;28;20464;-69
2023/05/27 00:36:32;;;;;;;9.87;4.80;;;12.30;99.90;;;;;;5095275;28;20946;-69
2023/05/27 00:38:59;;;;;;;10.23;4.77;;;12.20;99.90;;;;;;5095947;28;20499;-69
2023/05/27 00:41:27;;;;;;;7.67;4.03;;;12.20;99.90;;;;;;5095240;28;20495;-69
2023/05/27 00:43:54;;;;;;;9.50;5.10;;;12.20;99.90;;;;;;5095660;28;20460;-69
2023/05/27 00:46:21;;;;;;;14.97;4.83;;;12.20;99.90;;;;;;5095212;28;20453;-69
2023/05/27 00:48:49;;;;;;;12.47;4.37;;;12.10;99.90;;;;;;5095555;28;20453;-68
2023/05/27 00:51:17;;;;;;;7.40;3.93;;;12.10;99.90;;;;;;5095452;28;20938;-68
2023/05/27 00:53:45;;;;;;;14.97;4.40;;;12.10;99.90;;;;;;5095102;28;20463;-68
2023/05/27 00:56:15;;;;;;;10.50;4.10;;;12.10;99.90;;;;;;5095507;28;20465;-69
2023/05/27 00:58:42;;;;;;;7.90;4.10;;;12.10;99.90;;;;;;5095183;28;20761;-68
2023/05/27 01:01:09;;;;;;;17.50;5.07;;;12.00;99.90;;;;;;5095158;28;20816;-69
2023/05/27 01:03:38;;;;;;;9.27;4.00;;;12.00;99.90;;;;;;5094973;28;20900;-68
2023/05/27 01:06:28;;;;;;;10.10;4.00;;;12.00;99.90;;;;;;5095108;28;20454;-69
2023/05/27 01:09:09;;;;;;;11.30;3.83;;;12.00;99.90;;;;;;5095112;28;20438;-69
2023/05/27 01:11:42;;;;;;;9.00;3.90;;;11.90;99.90;;;;;;5095285;28;20446;-68
2023/05/27 01:14:11;;;;;;;8.80;4.43;;;11.90;99.90;;;;;;5094835;28;20456;-69
2023/05/27 01:16:40;;;;;;;14.23;4.40;;;11.90;99.90;;;;;;5094669;28;20453;-68
2023/05/27 01:19:14;;;;;;;16.33;4.77;;;11.90;99.90;;;;;;5094793;28;20631;-68
2023/05/27 01:21:45;;;;;;;12.93;4.60;;;11.80;99.90;;;;;;5094529;28;20478;-68
2023/05/27 01:24:13;;;;;;;9.80;3.70;;;11.80;99.90;;;;;;5094678;28;20453;-69
2023/05/27 01:26:42;;;;;;;9.70;4.67;;;11.80;99.90;;;;;;5094987;28;20464;-68
2023/05/27 01:29:09;;;;;;;11.47;4.10;;;11.80;99.90;;;;;;5094603;28;20468;-69
2023/05/27 01:31:43;;;;;;;8.37;4.23;;;11.80;99.90;;;;;;5094587;28;20464;-69
2023/05/27 01:34:13;;;;;;;12.70;3.90;;;11.80;99.90;;;;;;5094782;28;20442;-69
2023/05/27 01:36:46;;;;;;;11.07;4.27;;;11.70;99.90;;;;;;5094568;28;20487;-68
2023/05/27 01:39:15;;;;;;;8.37;4.37;;;11.70;99.90;;;;;;5094863;28;20448;-69
2023/05/27 01:41:43;;;;;;;16.57;4.90;;;11.70;99.90;;;;;;5094801;28;20459;-69
2023/05/27 01:44:11;;;;;;;12.23;4.90;;;11.70;1.00;;;;;;5094683;28;20713;-68
2023/05/27 01:46:38;;;;;;;12.10;4.77;;;11.70;1.00;;;;;;5094925;28;20936;-69
2023/05/27 01:49:05;;;;;;;8.53;4.17;;;11.70;1.00;;;;;;5094706;28;20449;-69
2023/05/27 01:51:32;;;;;;;8.87;4.30;;;11.60;1.00;;;;;;5094866;28;20459;-68
2023/05/27 01:53:59;;;;;;;16.20;4.80;;;11.60;1.00;;;;;;5094663;28;20813;-68
2023/05/27 01:56:27;;;;;;;8.47;3.83;;;11.60;1.00;;;;;;5094137;28;20449;-68
2023/05/27 01:58:54;;;;;;;7.27;3.90;;;11.60;1.00;;;;;;5094500;28;20560;-69
2023/05/27 02:01:21;;;;;;;6.53;3.80;;;11.60;1.00;;;;;;5094597;28;20822;-69
2023/05/27 02:03:48;;;;;;;8.70;4.67;;;11.60;99.90;;;;;;5093694;28;20461;-69
2023/05/27 02:06:15;;;;;;;10.70;4.43;;;11.50;1.00;;;;;;5094157;28;20760;-69
2023/05/27 02:08:42;;;;;;;10.63;4.63;;;11.50;1.00;;;;;;5094439;28;20449;-68
2023/05/27 02:11:09;;;;;;;5.77;3.93;;;11.50;1.00;;;;;;5094280;28;20457;-69
2023/05/27 02:13:37;;;;;;;10.33;4.80;;;11.40;1.00;;;;;;5094316;28;20453;-69
2023/05/27 02:16:04;;;;;;;7.53;4.17;;;11.50;1.00;;;;;;5094521;28;20878;-69
2023/05/27 02:18:32;;;;;;;15.07;4.37;;;11.40;1.00;;;;;;5094165;28;20757;-69
2023/05/27 02:21:05;;;;;;;12.83;4.47;;;11.40;1.00;;;;;;5094108;28;20969;-68
2023/05/27 02:23:32;;;;;;;8.63;4.27;;;11.40;1.00;;;;;;5094417;28;20450;-69
2023/05/27 02:26:00;;;;;;;11.30;4.83;;;11.40;1.00;;;;;;5094012;28;20465;-69
2023/05/27 02:28:27;;;;;;;17.13;4.97;;;11.40;1.00;;;;;;5094331;28;20906;-69
2023/05/27 02:30:55;;;;;;;8.07;4.20;;;11.40;1.00;;;;;;5094368;28;20772;-69
2023/05/27 02:33:22;;;;;;;12.17;4.13;;;11.40;1.00;;;;;;5094609;28;20453;-69
2023/05/27 02:35:49;;;;;;;12.63;4.27;;;11.40;1.00;;;;;;5093816;28;20453;-69
2023/05/27 02:38:16;;;;;;;9.47;4.50;;;11.30;1.00;;;;;;5093740;28;20489;-69
2023/05/27 02:40:42;;;;;;;9.30;4.80;;;11.40;1.00;;;;;;5093720;28;20498;-68
2023/05/27 02:43:10;;;;;;;11.30;4.67;;;11.30;50.90;;;;;;5094109;28;20453;-68
2023/05/27 02:45:37;;;;;;;12.60;4.70;;;11.30;99.90;;;;;;5094206;28;20461;-69
2023/05/27 02:48:06;;;;;;;10.00;5.17;;;11.30;99.90;;;;;;5093713;28;20453;-68
2023/05/27 02:50:32;;;;;;;8.10;4.60;;;11.30;99.90;;;;;;5094073;28;20457;-69
2023/05/27 02:52:59;;;;;;;9.53;5.20;;;11.20;99.90;;;;;;5093730;28;20453;-69
2023/05/27 02:55:26;;;;;;;14.47;4.90;;;11.20;1.00;;;;;;5093688;28;20791;-69
2023/05/27 02:57:53;;;;;;;13.97;5.23;;;11.20;99.90;;;;;;5093834;28;20487;-68
2023/05/27 03:00:20;;;;;;;9.33;4.53;;;11.20;1.00;;;;;;5093972;28;20540;-69
2023/05/27 03:02:47;;;;;;;12.50;4.90;;;11.10;1.00;;;;;;5093413;28;20893;-69
2023/05/27 03:05:15;;;;;;;13.23;5.10;;;11.10;99.90;;;;;;5093930;28;20453;-68
2023/05/27 03:07:42;;;;;;;10.40;5.83;;;11.10;1.00;;;;;;5094192;28;20473;-68
2023/05/27 03:10:09;;;;;;;10.90;4.80;;;11.10;1.00;;;;;;5094203;28;20457;-68
2023/05/27 03:12:36;;;;;;;12.20;5.17;;;11.00;1.00;;;;;;5093955;28;20463;-69
2023/05/27 03:15:03;;;;;;;12.70;4.90;;;11.00;1.00;;;;;;5095431;28;20777;-68
2023/05/27 03:17:30;;;;;;;8.63;4.90;;;11.00;37.40;;;;;;5097333;28;20767;-69
2023/05/27 03:19:57;;;;;;;11.33;4.37;;;11.00;99.90;;;;;;5097270;28;20449;-69
2023/05/27 03:22:25;;;;;;;7.70;4.80;;;11.00;1.00;;;;;;5096845;28;20457;-68
2023/05/27 03:24:54;;;;;;;10.60;5.20;;;11.00;99.90;;;;;;5097419;28;20966;-68
2023/05/27 03:27:21;;;;;;;14.07;6.30;;;11.00;99.90;;;;;;5097344;28;20461;-69
2023/05/27 03:29:48;;;;;;;16.33;5.47;;;11.00;1.00;;;;;;5096988;28;20457;-69
2023/05/27 03:32:15;;;;;;;9.00;5.07;;;11.00;1.00;;;;;;5097312;28;20453;-69
2023/05/27 03:34:42;;;;;;;15.63;5.50;;;11.00;1.00;;;;;;5097163;28;20539;-69
2023/05/27 03:37:09;;;;;;;11.83;4.97;;;10.90;1.00;;;;;;5096558;28;20481;-68
2023/05/27 03:39:37;;;;;;;14.13;4.73;;;11.00;1.00;;;;;;5096904;28;20914;-69
2023/05/27 03:42:05;;;;;;;12.70;5.20;;;10.90;55.00;;;;;;5096292;28;20569;-69
2023/05/27 03:44:32;;;;;;;15.67;5.20;;;10.90;1.00;;;;;;5096710;28;20469;-69
2023/05/27 03:46:59;;;;;;;10.00;5.30;;;10.90;99.90;;;;;;5096962;28;20463;-69
2023/05/27 03:49:25;;;;;;;11.47;5.43;;;10.90;99.90;;;;;;5096971;28;20449;-68
2023/05/27 03:51:53;;;;;;;9.07;5.20;;;10.90;99.90;;;;;;5096578;28;20464;-69
2023/05/27 03:54:20;;;;;;;14.33;5.70;;;10.90;1.00;;;;;;5097162;28;20801;-69
2023/05/27 03:56:48;;;;;;;11.70;5.13;;;10.90;1.00;;;;;;5096950;28;20453;-69
2023/05/27 03:59:15;;;;;;;11.70;6.20;;;10.90;1.00;;;;;;5096980;28;20804;-69
2023/05/27 04:01:44;;;;;;;11.33;5.67;;;10.90;1.00;;;;;;5096514;28;21027;-69
2023/05/27 04:04:11;;;;;;;13.80;5.20;;;10.90;1.00;;;;;;5096514;28;20492;-69
2023/05/27 04:06:38;;;;;;;12.63;5.47;;;10.90;1.00;;;;;;5096646;28;20463;-69
2023/05/27 04:09:05;;;;;;;12.17;5.60;;;10.90;1.00;;;;;;5096728;28;20556;-69
2023/05/27 04:11:32;;;;;;;10.40;5.43;;;10.90;1.00;;;;;;5096386;28;20457;-69
2023/05/27 04:14:00;;;;;;;13.03;6.20;;;10.90;1.00;;;;;;5096880;28;20958;-69
2023/05/27 04:16:30;;;;;;;17.20;5.60;;;10.90;1.00;;;;;;5096221;28;20454;-69
2023/05/27 04:18:58;;;;;;;12.03;5.73;;;10.90;1.00;;;;;;5096485;28;20522;-69
2023/05/27 04:21:25;;;;;;;8.07;4.73;;;10.90;1.00;;;;;;5095941;28;20453;-69
2023/05/27 04:23:52;;;;;;;14.80;5.13;;;10.90;1.00;;;;;;5095873;28;20453;-69
2023/05/27 04:26:19;;;;;;;13.13;5.00;;;10.90;1.00;;;;;;5095722;28;20457;-68
2023/05/27 04:28:46;;;;;;;11.03;4.97;;;10.90;1.00;;;;;;5095715;28;20453;-69
2023/05/27 04:31:15;;;;;;;10.30;5.33;;;10.90;99.90;;;;;;5095669;28;20515;-69
2023/05/27 04:33:42;;;;;;;10.73;5.17;;;11.00;43.60;;;;;;5095714;28;20464;-69
2023/05/27 04:36:09;;;;;;;13.07;5.47;;;11.00;83.60;;;;;;5096018;28;20457;-69
2023/05/27 04:38:36;;;;;;;20.73;6.03;;;11.00;35.90;;;;;;5096229;28;20477;-69
2023/05/27 04:41:04;;;;;;;9.30;4.90;;;11.00;1.00;;;;;;5096080;28;20564;-68
2023/05/27 04:43:33;;;;;;;18.50;10.73;;;11.00;99.90;;;;;;5096168;28;20782;-69
2023/05/27 04:46:00;;;;;;;11.83;5.70;;;11.00;1.00;;;;;;5095798;28;20530;-68
2023/05/27 04:48:28;;;;;;;12.00;5.10;;;11.00;1.00;;;;;;5095820;28;20804;-69
2023/05/27 04:50:56;;;;;;;15.23;5.53;;;11.00;99.90;;;;;;5095525;28;20514;-68
2023/05/27 04:53:24;;;;;;;12.30;5.60;;;11.10;75.80;;;;;;5095405;28;20463;-68
2023/05/27 04:55:51;;;;;;;13.00;5.70;;;11.10;1.00;;;;;;5095731;28;20778;-69
2023/05/27 04:58:18;;;;;;;10.17;5.30;;;11.10;99.90;;;;;;5095612;28;20820;-70
2023/05/27 05:00:53;;;;;;;13.30;5.50;;;11.10;99.90;;;;;;5095464;28;20556;-69
2023/05/27 05:03:21;;;;;;;14.73;4.40;;;11.20;99.90;;;;;;5095507;28;20826;-69
2023/05/27 05:05:51;;;;;;;11.10;5.00;;;11.20;1.00;;;;;;5095500;28;20764;-69
2023/05/27 05:08:18;;;;;;;16.67;8.53;;;11.20;99.90;;;;;;5095623;28;20783;-69
2023/05/27 05:10:47;;;;;;;12.07;7.50;;;11.30;99.90;;;;;;5095522;28;20468;-69
2023/05/27 05:13:14;;;;;;;19.43;5.50;;;11.30;1.00;;;;;;5095415;28;20778;-69
2023/05/27 05:15:43;;;;;;;12.80;5.73;;;11.30;1.00;;;;;;5095395;28;20757;-69
2023/05/27 05:18:10;;;;;;;9.90;6.00;;;11.40;1.00;;;;;;5095333;28;20558;-69
2023/05/27 05:20:37;;;;;;;9.90;4.70;;;11.40;99.90;;;;;;5095100;28;20463;-68
2023/05/27 05:23:06;;;;;;;11.20;4.93;;;11.40;99.90;;;;;;5094977;28;20454;-70
2023/05/27 05:25:37;;;;;;;10.67;4.87;;;11.50;99.90;;;;;;5095262;28;20481;-69
2023/05/27 05:28:04;;;;;;;16.97;4.63;;;11.50;1.00;;;;;;5095270;28;20445;-68
2023/05/27 05:30:31;;;;;;;13.90;7.23;;;11.60;1.00;;;;;;5095244;28;20465;-68
2023/05/27 05:32:58;;;;;;;14.70;4.33;;;11.60;45.90;;;;;;5094793;28;20556;-69
2023/05/27 05:35:25;;;;;;;11.67;5.00;;;11.70;99.90;;;;;;5095163;28;20522;-69
2023/05/27 05:37:51;;;;;;;6.70;4.50;;;11.70;55.10;;;;;;5093851;28;20482;-69
2023/05/27 05:40:20;;;;;;;13.73;5.50;;;11.80;1.00;;;;;;5094929;28;20453;-68
2023/05/27 05:42:46;;;;;;;13.80;4.10;;;11.90;1.00;;;;;;5095282;28;20453;-68
2023/05/27 05:45:13;;;;;;;9.90;4.37;;;11.90;1.00;;;;;;5095064;28;20856;-68
2023/05/27 05:47:40;;;;;;;11.13;4.50;;;12.00;99.90;;;;;;5094655;28;20543;-68
2023/05/27 05:50:08;;;;;;;8.20;3.43;;;12.00;99.90;;;;;;5094948;28;20482;-68
2023/05/27 05:52:35;;;;;;;14.70;4.13;;;12.10;6.20;;;;;;5095581;28;20754;-69
2023/05/27 05:55:02;;;;;;;11.40;4.07;;;12.20;1.00;;;;;;5094986;28;20457;-68
2023/05/27 05:57:32;;;;;;;5.93;2.73;;;12.20;1.00;;;;;;5094777;28;20499;-68
2023/05/27 05:59:59;;;;;;;8.33;3.30;;;12.30;1.00;;;;;;5094703;28;20489;-69
2023/05/27 06:02:26;;;;;;;4.97;2.97;;;12.30;1.00;;;;;;5094682;28;20459;-69
2023/05/27 06:04:53;;;;;;;10.83;3.20;;;12.40;1.00;;;;;;5094802;28;20789;-68
2023/05/27 06:07:20;;;;;;;9.10;3.07;;;12.40;1.00;;;;;;5094668;28;20800;-68
2023/05/27 06:09:46;;;;;;;8.47;3.80;;;12.50;99.90;;;;;;5094387;28;20481;-68
2023/05/27 06:12:13;;;;;;;11.73;5.20;;;12.50;99.90;;;;;;5094559;28;20463;-70
2023/05/27 06:14:41;;;;;;;5.83;2.80;;;12.60;99.90;;;;;;5094944;28;20839;-69
2023/05/27 06:17:08;;;;;;;5.30;2.10;;;12.70;99.90;;;;;;5094403;28;20567;-67
2023/05/27 06:19:35;;;;;;;3.50;2.40;;;12.70;99.90;;;;;;5094386;28;20481;-68
2023/05/27 06:22:04;;;;;;;5.47;2.53;;;12.90;99.90;;;;;;5094086;28;20920;-68
2023/05/27 06:24:31;;;;;;;4.33;1.97;;;12.90;99.90;;;;;;5094285;28;20461;-69
2023/05/27 06:26:58;;;;;;;6.57;1.97;;;13.00;80.00;;;;;;5094364;28;20454;-68
2023/05/27 06:29:25;;;;;;;3.37;1.57;;;13.00;68.30;;;;;;5094571;28;20459;-68
2023/05/27 06:31:54;;;;;;;2.60;1.73;;;13.10;6.50;;;;;;5094117;28;20560;-69
2023/05/27 06:34:21;;;;;;;2.40;1.57;;;13.20;1.00;;;;;;5093835;28;20461;-70
2023/05/27 06:36:48;;;;;;;4.70;1.57;;;13.20;1.00;;;;;;5093864;28;20477;-69
2023/05/27 06:39:15;;;;;;;5.03;1.90;;;13.30;1.00;;;;;;5093860;28;20556;-68
2023/05/27 06:41:42;;;;;;;8.00;1.50;;;13.40;1.00;;;;;;5094248;28;20461;-68
2023/05/27 06:44:09;;;;;;;1.90;1.30;;;13.40;1.00;;;;;;5093876;28;20457;-68
2023/05/27 06:46:36;;;;;;;1.90;1.20;;;13.50;1.00;;;;;;5093761;28;20512;-68
2023/05/27 06:49:04;;;;;;;8.33;5.10;;;13.50;1.00;;;;;;5096184;28;20453;-68
2023/05/27 06:51:31;;;;;;;6.77;1.30;;;13.50;1.00;;;;;;5097914;28;20487;-68
2023/05/27 06:53:58;;;;;;;2.40;1.53;;;13.60;1.00;;;;;;5097770;28;20488;-68
2023/05/27 06:56:26;;;;;;;2.07;1.70;;;13.70;1.00;;;;;;5098013;28;20786;-69
2023/05/27 06:58:53;;;;;;;3.97;1.90;;;13.70;1.00;;;;;;5097639;28;20975;-68
2023/05/27 07:01:20;;;;;;;2.27;1.23;;;13.80;1.00;;;;;;5097953;28;20853;-68
2023/05/27 07:03:47;;;;;;;2.53;1.40;;;13.80;1.00;;;;;;5097262;28;20457;-68
2023/05/27 07:06:16;;;;;;;3.50;1.50;;;13.90;1.00;;;;;;5097442;28;20453;-68
2023/05/27 07:08:42;;;;;;;3.77;1.40;;;14.00;1.00;;;;;;5097413;28;20512;-68
2023/05/27 07:11:09;;;;;;;3.43;1.40;;;14.00;1.00;;;;;;5097601;28;20801;-68
2023/05/27 07:13:36;;;;;;;2.50;1.20;;;14.10;1.00;;;;;;5097454;28;20510;-68
2023/05/27 07:16:03;;;;;;;3.53;1.50;;;14.20;1.00;;;;;;5097290;28;20453;-68
2023/05/27 07:18:30;;;;;;;6.87;1.47;;;14.20;1.00;;;;;;5097400;28;20463;-68
2023/05/27 07:20:57;;;;;;;1.70;0.90;;;14.20;1.00;;;;;;5097522;28;20791;-68
2023/05/27 07:23:25;;;;;;;2.80;1.23;;;14.30;1.00;;;;;;5097352;28;20457;-68
2023/05/27 07:25:51;;;;;;;6.90;6.20;;;14.40;1.00;;;;;;5096893;28;21017;-68
2023/05/27 07:28:18;;;;;;;1.97;1.60;;;14.50;1.00;;;;;;5096832;28;20453;-68
2023/05/27 07:30:45;;;;;;;3.67;1.20;;;14.50;1.00;;;;;;5096812;28;20536;-68
2023/05/27 07:33:12;;;;;;;3.03;1.10;;;14.50;1.00;;;;;;5096946;28;20472;-68
2023/05/27 07:35:40;;;;;;;2.03;1.10;;;14.50;1.00;;;;;;5096991;28;20461;-68
2023/05/27 07:38:07;;;;;;;2.90;1.30;;;14.60;1.00;;;;;;5097073;28;20905;-67
2023/05/27 07:40:35;;;;;;;3.67;1.30;;;14.70;1.00;;;;;;5096947;28;20503;-68
2023/05/27 07:43:02;;;;;;;1.83;1.00;;;14.70;1.00;;;;;;5096683;28;20473;-68
2023/05/27 07:45:30;;;;;;;1.50;1.00;;;14.80;1.00;;;;;;5096941;28;20454;-68
2023/05/27 07:47:56;;;;;;;4.07;1.40;;;14.80;1.00;;;;;;5096867;28;20465;-68
2023/05/27 07:50:23;;;;;;;6.80;4.33;;;15.00;1.00;;;;;;5096728;28;20453;-68
2023/05/27 07:52:50;;;;;;;2.20;1.70;;;15.10;1.00;;;;;;5097230;28;20467;-68
2023/05/27 07:55:17;;;;;;;1.60;0.97;;;15.10;1.00;;;;;;5096915;28;20469;-67
2023/05/27 07:57:45;;;;;;;1.27;0.83;;;15.20;1.00;;;;;;5096283;28;20468;-68
2023/05/27 08:00:13;;;;;;;3.13;1.13;;;15.20;1.00;;;;;;5095207;28;20969;-67
2023/05/27 08:02:41;;;;;;;2.23;1.20;;;15.20;1.00;;;;;;5096342;28;20842;-68
2023/05/27 08:05:09;;;;;;;15.50;10.97;;;15.40;1.00;;;;;;5096245;28;20449;-68
2023/05/27 08:07:36;;;;;;;2.50;1.50;;;15.40;1.00;;;;;;5096410;28;20547;-68
2023/05/27 08:10:03;;;;;;;4.27;1.20;;;15.50;1.00;;;;;;5096459;28;20449;-68
2023/05/27 08:12:30;;;;;;;3.20;0.90;;;15.60;1.00;;;;;;5096403;28;20454;-68
2023/05/27 08:14:58;;;;;;;1.80;1.00;;;15.60;1.00;;;;;;5096176;28;20445;-68
2023/05/27 08:17:25;;;;;;;3.67;0.93;;;15.70;1.00;;;;;;5095973;28;20450;-68
2023/05/27 08:19:52;;;;;;;1.93;0.93;;;15.80;1.00;;;;;;5096084;28;20968;-70
2023/05/27 08:22:19;;;;;;;4.13;0.90;;;15.70;1.00;;;;;;5096055;28;20454;-70
2023/05/27 08:24:46;;;;;;;1.40;1.10;;;15.80;1.00;;;;;;5096008;28;20468;-67
2023/05/27 08:27:15;;;;;;;1.97;1.03;;;15.80;1.00;;;;;;5096127;28;20556;-69
2023/05/27 08:29:42;;;;;;;1.80;0.80;;;15.80;1.00;;;;;;5095589;28;20453;-69
2023/05/27 08:32:10;;;;;;;1.80;1.10;;;15.90;1.00;;;;;;5096018;28;20453;-69
2023/05/27 08:34:37;;;;;;;1.60;1.30;;;15.90;1.00;;;;;;5095512;28;20456;-69
2023/05/27 08:37:05;;;;;;;1.90;1.07;;;16.00;1.00;;;;;;5095375;28;20484;-69
2023/05/27 08:39:32;;;;;;;2.77;1.00;;;16.00;1.00;;;;;;5095447;28;20481;-69
2023/05/27 08:42:02;;;;;;;2.47;0.83;;;16.00;1.00;;;;;;5095272;28;20454;-69
2023/05/27 08:44:29;;;;;;;2.13;1.40;;;16.00;1.00;;;;;;5095491;28;20785;-69
2023/05/27 08:46:57;;;;;;;1.90;1.10;;;16.20;1.00;;;;;;5095608;28;20801;-69
2023/05/27 08:49:25;;;;;;;5.73;3.17;;;16.30;1.00;;;;;;5095327;28;20450;-69
2023/05/27 08:51:53;;;;;;;1.27;1.00;;;16.20;1.00;;;;;;5095368;28;20517;-70
2023/05/27 08:54:20;;;;;;;1.80;1.00;;;16.30;1.00;;;;;;5095386;28;20957;-69
2023/05/27 08:56:49;;;;;;;1.40;0.83;;;16.40;1.00;;;;;;5095107;28;20557;-69
2023/05/27 08:59:16;;;;;;;2.33;1.20;;;16.50;1.00;;;;;;5095094;28;20938;-69
2023/05/27 09:01:44;;;;;;;2.70;1.00;;;16.50;1.00;;;;;;5095543;28;20453;-69
2023/05/27 09:04:11;;;;;;;13.07;10.60;;;16.50;1.00;;;;;;5095315;28;20457;-69
2023/05/27 09:06:40;;;;;;;6.70;5.67;;;16.60;1.00;;;;;;5095175;28;20463;-69
2023/05/27 09:09:09;;;;;;;2.37;1.50;;;16.70;1.00;;;;;;5095233;28;20540;-69
2023/05/27 09:11:40;;;;;;;4.47;1.20;;;16.70;1.00;;;;;;5095108;28;20453;-69
2023/05/27 09:14:07;;;;;;;1.57;1.03;;;16.70;1.00;;;;;;5095166;28;20748;-69
2023/05/27 09:16:34;;;;;;;3.43;1.20;;;16.90;1.00;;;;;;5094490;28;20453;-69
2023/05/27 09:19:00;;;;;;;2.17;1.13;;;16.80;1.00;;;;;;5095360;28;20454;-69
2023/05/27 09:21:27;;;;;;;2.20;1.60;;;16.90;1.00;;;;;;5094693;28;20457;-69
2023/05/27 09:23:58;;;;;;;2.70;1.90;;;16.90;1.00;;;;;;5094914;28;20463;-69
2023/05/27 09:26:25;;;;;;;2.60;1.30;;;17.00;1.00;;;;;;5094807;28;20442;-69
2023/05/27 09:28:52;;;;;;;1.80;0.93;;;17.10;1.00;;;;;;5094586;28;20458;-69
2023/05/27 09:31:23;;;;;;;1.33;1.00;;;17.10;1.00;;;;;;5094763;28;20453;-69
2023/05/27 09:33:50;;;;;;;13.00;9.00;;;17.10;1.00;;;;;;5094710;28;20449;-68
2023/05/27 09:36:21;;;;;;;2.20;1.73;;;17.20;1.00;;;;;;5094340;28;20963;-68
2023/05/27 09:38:49;;;;;;;2.60;2.23;;;17.30;1.00;;;;;;5094752;28;20456;-68
2023/05/27 09:41:26;;;;;;;2.23;1.33;;;17.30;1.00;;;;;;5094444;28;20535;-68
2023/05/27 09:43:58;;;;;;;1.97;1.20;;;17.30;1.00;;;;;;5094497;28;20460;-68
2023/05/27 09:46:26;;;;;;;1.80;1.50;;;17.40;1.00;;;;;;5094188;28;20457;-68
2023/05/27 09:48:54;;;;;;;4.53;3.43;;;17.50;1.00;;;;;;5094118;28;20886;-69
2023/05/27 09:51:21;;;;;;;2.20;1.27;;;17.50;1.00;;;;;;5094548;28;20449;-68
2023/05/27 09:53:50;;;;;;;2.47;1.20;;;17.50;1.00;;;;;;5094349;28;20977;-68
2023/05/27 09:56:19;;;;;;;3.73;1.00;;;17.50;1.00;;;;;;5094278;28;20795;-68
2023/05/27 09:58:46;;;;;;;1.43;1.00;;;17.60;1.00;;;;;;5094497;28;20926;-68
2023/05/27 10:01:13;;;;;;;2.80;1.43;;;17.70;1.00;;;;;;5094109;28;21008;-68
2023/05/27 10:03:44;;;;;;;2.33;1.43;;;17.80;1.00;;;;;;5094468;28;20495;-68
2023/05/27 10:06:13;;;;;;;1.70;1.30;;;17.80;1.00;;;;;;5094230;28;20819;-68
2023/05/27 10:08:43;;;;;;;2.47;1.70;;;17.80;1.00;;;;;;5094444;28;20453;-68
2023/05/27 10:11:11;;;;;;;2.60;1.70;;;17.90;1.00;;;;;;5094554;28;20449;-69
2023/05/27 10:13:39;;;;;;;2.07;1.40;;;17.90;1.00;;;;;;5093597;28;20449;-68
2023/05/27 10:16:06;;;;;;;2.83;1.40;;;17.90;1.00;;;;;;5093793;28;20453;-69
2023/05/27 10:18:34;;;;;;;2.30;1.50;;;18.00;1.00;;;;;;5093827;28;20453;-68
2023/05/27 10:21:05;;;;;;;2.77;2.10;;;18.10;1.00;;;;;;5093778;28;20512;-68
2023/05/27 10:23:32;;;;;;;2.40;1.67;;;18.10;1.00;;;;;;5094641;28;20452;-68
2023/05/27 10:26:05;;;;;;;2.53;1.40;;;18.10;1.00;;;;;;5098329;28;20453;-68
2023/05/27 10:28:35;;;;;;;1.83;1.23;;;18.10;1.00;;;;;;5098620;28;20452;-68
2023/05/27 10:31:07;;;;;;;2.17;1.10;;;18.20;1.00;;;;;;5098302;28;20453;-68
2023/05/27 10:33:36;;;;;;;2.57;1.70;;;18.30;1.00;;;;;;5098141;28;20457;-69
2023/05/27 10:36:11;;;;;;;3.63;1.60;;;18.40;1.00;;;;;;5098212;28;20467;-68
2023/05/27 10:38:38;;;;;;;2.93;1.53;;;18.50;1.00;;;;;;5097628;28;20894;-68
2023/05/27 10:41:07;;;;;;;3.17;1.50;;;18.50;1.00;;;;;;5097990;28;20510;-68
2023/05/27 10:43:35;;;;;;;1.50;1.17;;;18.60;1.00;;;;;;5097801;28;20933;-68
2023/05/27 10:46:13;;;;;;;6.33;1.23;;;18.60;1.00;;;;;;5098128;28;20457;-68
2023/05/27 10:48:40;;;;;;;2.77;1.47;;;18.70;1.00;;;;;;5098101;28;20921;-69
2023/05/27 10:51:07;;;;;;;4.47;2.20;;;18.70;1.00;;;;;;5097469;28;20460;-68
2023/05/27 10:53:36;;;;;;;3.07;1.80;;;18.80;1.00;;;;;;5097827;28;20457;-68
2023/05/27 10:56:04;;;;;;;7.60;5.90;;;19.00;1.00;;;;;;5097307;28;20461;-68
2023/05/27 10:58:34;;;;;;;1.83;1.33;;;19.00;1.00;;;;;;5097701;28;20552;-68
2023/05/27 11:01:07;;;;;;;1.40;0.90;;;19.10;1.00;;;;;;5097813;28;20744;-69
2023/05/27 11:03:35;;;;;;;1.93;1.23;;;19.10;1.00;;;;;;5097739;28;20441;-68
2023/05/27 11:06:04;;;;;;;2.13;1.33;;;19.20;1.00;;;;;;5097646;28;20517;-68
2023/05/27 11:08:32;;;;;;;2.70;1.77;;;19.20;1.00;;;;;;5097290;28;20915;-68
2023/05/27 11:11:04;;;;;;;1.40;1.03;;;19.40;1.00;;;;;;5097598;28;20489;-68
2023/05/27 11:13:32;;;;;;;1.63;1.30;;;19.50;1.00;;;;;;5097221;28;20452;-68
2023/05/27 11:15:59;;;;;;;2.90;1.50;;;19.80;1.00;;;;;;5097340;28;20453;-68
2023/05/27 11:18:34;;;;;;;1.73;1.20;;;20.40;1.00;;;;;;5097490;28;20492;-69
2023/05/27 11:21:04;;;;;;;3.90;1.30;;;21.30;1.00;;;;;;5096865;28;20460;-69
2023/05/27 11:23:39;;;;;;;3.27;1.53;;;22.40;1.00;;;;;;5097463;28;20465;-69
2023/05/27 11:26:12;;;;;;;2.83;1.47;;;23.60;1.00;;;;;;5097537;28;20527;-69
2023/05/27 11:28:45;;;;;;;4.70;1.50;;;24.60;1.00;;;;;;5097493;28;20438;-69
2023/05/27 11:31:12;;;;;;;3.57;2.70;;;25.50;1.00;;;;;;5097317;28;20438;-69
2023/05/27 11:33:41;;;;;;;2.20;1.70;;;26.40;1.00;;;;;;5097215;28;20465;-69
2023/05/27 11:36:13;;;;;;;1.87;1.40;;;27.20;1.00;;;;;;5095638;28;20456;-69
2023/05/27 11:38:50;;;;;;;3.00;1.93;;;27.90;1.00;;;;;;5056640;28;20892;-68
2023/05/27 11:41:18;;;;;;;3.73;1.80;;;28.40;1.00;;;;;;5056438;28;20467;-67
2023/05/27 11:43:48;;;;;;;2.53;1.97;;;28.80;1.00;;;;;;5056786;28;20462;-67
2023/05/27 11:46:16;;;;;;;2.77;1.77;;;29.20;1.00;;;;;;5057121;28;20459;-67
2023/05/27 11:48:43;;;;;;;3.10;1.60;;;29.60;1.00;;;;;;5056335;28;20454;-68
2023/05/27 11:51:11;;;;;;;2.80;2.60;;;29.90;1.00;;;;;;5056637;28;20450;-69
2023/05/27 11:53:41;;;;;;;2.37;1.77;;;30.10;1.00;;;;;;5056527;28;20938;-68
2023/05/27 11:56:08;;;;;;;2.27;1.60;;;30.30;1.00;;;;;;5056287;28;20490;-68
2023/05/27 11:58:36;;;;;;;2.27;1.83;;;30.40;1.00;;;;;;5056437;28;20463;-68
2023/05/27 12:01:03;;;;;;;4.90;1.80;;;30.50;1.00;;;;;;5056252;28;20526;-68
2023/05/27 12:03:31;;;;;;;2.07;1.87;;;30.60;1.00;;;;;;5055997;28;20471;-68
2023/05/27 12:05:58;;;;;;;3.10;1.63;;;30.80;1.00;;;;;;5056077;28;20857;-68
2023/05/27 12:08:26;;;;;;;2.80;1.90;;;31.10;1.00;;;;;;5055864;28;20467;-68
2023/05/27 12:10:54;;;;;;;1.90;1.70;;;31.30;1.00;;;;;;5055500;28;20451;-68
2023/05/27 12:13:21;;;;;;;3.33;1.73;;;31.40;1.00;;;;;;5055873;28;20843;-68
2023/05/27 12:15:48;;;;;;;2.87;1.73;;;31.50;1.00;;;;;;5055863;28;20463;-68
2023/05/27 12:18:15;;;;;;;2.57;1.80;;;31.40;1.00;;;;;;5055885;28;20896;-68
2023/05/27 12:20:42;;;;;;;2.67;1.40;;;30.70;1.00;;;;;;5056121;28;20462;-68
2023/05/27 12:23:09;;;;;;;4.50;1.90;;;30.70;1.00;;;;;;5055923;28;20549;-68
2023/05/27 12:25:38;;;;;;;1.63;1.30;;;30.80;1.00;;;;;;5055947;28;20945;-68
2023/05/27 12:28:06;;;;;;;1.97;1.40;;;31.00;1.00;;;;;;5055789;28;20459;-68
2023/05/27 12:30:33;;;;;;;1.83;1.47;;;31.30;1.00;;;;;;5055483;28;20475;-68
2023/05/27 12:33:00;;;;;;;1.70;1.50;;;31.40;1.00;;;;;;5055811;28;20466;-68
2023/05/27 12:35:27;;;;;;;1.87;1.77;;;31.40;1.00;;;;;;5055779;28;20817;-68
2023/05/27 12:37:54;;;;;;;2.67;1.40;;;30.90;1.00;;;;;;5084411;28;20487;-68
2023/05/27 12:40:20;;;;;;;2.10;1.37;;;30.90;1.00;;;;;;5095675;28;20461;-68
2023/05/27 12:42:49;;;;;;;2.10;1.40;;;31.00;1.00;;;;;;5095578;28;20461;-68
2023/05/27 12:45:16;;;;;;;2.93;1.87;;;31.20;1.00;;;;;;5095533;28;20457;-68
2023/05/27 12:47:43;;;;;;;2.47;1.67;;;31.30;1.00;;;;;;5095041;28;20453;-68
2023/05/27 12:50:10;;;;;;;2.63;1.60;;;31.50;1.00;;;;;;5095344;28;20776;-68
2023/05/27 12:52:37;;;;;;;2.73;2.00;;;31.60;1.00;;;;;;5095568;28;20787;-68
2023/05/27 12:55:05;;;;;;;3.40;1.80;;;31.70;1.00;;;;;;5095378;28;20552;-68